sensor_id;sensor_type;location;lat;lon;timestamp;pressure;altitude;pressure_sealevel;temperature;humidity
49585;BME280;35491;49.142;9.210;2023-12-28T00:00:38;99944.34;;;6.04;70.86
49585;BME280;35491;49.142;9.210;2023-12-28T00:01:41;99953.59;;;5.98;71.07
49585;BME280;35491;49.142;9.210;2023-12-28T00:02:42;99956.50;;;5.95;70.97
49585;BME280;35491;49.142;9.210;2023-12-28T00:04:01;99963.31;;;5.86;71.03
49585;BME280;35491;49.142;9.210;2023-12-28T00:05:01;99959.19;;;5.82;71.17
49585;BME280;35491;49.142;9.210;2023-12-28T00:06:05;99971.50;;;5.83;71.45
49585;BME280;35491;49.142;9.210;2023-12-28T00:07:09;99969.56;;;5.74;71.24
49585;BME280;35491;49.142;9.210;2023-12-28T00:08:15;99971.38;;;5.73;71.69
49585;BME280;35491;49.142;9.210;2023-12-28T00:09:17;99981.25;;;5.71;71.54
49585;BME280;35491;49.142;9.210;2023-12-28T00:10:26;99983.06;;;5.71;71.78
49585;BME280;35491;49.142;9.210;2023-12-28T00:11:30;99991.59;;;5.63;71.69
49585;BME280;35491;49.142;9.210;2023-12-28T00:12:33;99993.00;;;5.56;71.73
49585;BME280;35491;49.142;9.210;2023-12-28T00:13:34;100000.50;;;5.62;71.53
49585;BME280;35491;49.142;9.210;2023-12-28T00:14:37;99996.63;;;5.55;71.86
49585;BME280;35491;49.142;9.210;2023-12-28T00:15:38;100003.63;;;5.56;71.73
49585;BME280;35491;49.142;9.210;2023-12-28T00:16:43;99994.31;;;5.50;71.79
49585;BME280;35491;49.142;9.210;2023-12-28T00:17:44;99995.25;;;5.49;71.77
49585;BME280;35491;49.142;9.210;2023-12-28T00:18:47;99984.31;;;5.54;71.73
49585;BME280;35491;49.142;9.210;2023-12-28T00:19:48;99989.34;;;5.45;71.83
49585;BME280;35491;49.142;9.210;2023-12-28T00:20:52;99984.78;;;5.47;71.75
49585;BME280;35491;49.142;9.210;2023-12-28T00:21:54;99982.84;;;5.50;72.02
49585;BME280;35491;49.142;9.210;2023-12-28T00:23:00;99987.03;;;5.41;71.91
49585;BME280;35491;49.142;9.210;2023-12-28T00:24:01;99985.88;;;5.32;72.14
49585;BME280;35491;49.142;9.210;2023-12-28T00:25:06;99988.31;;;5.35;72.24
49585;BME280;35491;49.142;9.210;2023-12-28T00:26:08;99980.84;;;5.29;72.24
49585;BME280;35491;49.142;9.210;2023-12-28T00:27:11;99987.75;;;5.19;72.59
49585;BME280;35491;49.142;9.210;2023-12-28T00:28:12;99970.72;;;5.10;72.75
49585;BME280;35491;49.142;9.210;2023-12-28T00:29:16;99970.03;;;5.19;72.63
49585;BME280;35491;49.142;9.210;2023-12-28T00:30:16;99973.84;;;5.15;73.00
49585;BME280;35491;49.142;9.210;2023-12-28T00:31:20;99983.16;;;5.21;72.86
49585;BME280;35491;49.142;9.210;2023-12-28T00:32:20;99977.88;;;5.21;72.93
49585;BME280;35491;49.142;9.210;2023-12-28T00:33:24;99972.19;;;5.14;72.81
49585;BME280;35491;49.142;9.210;2023-12-28T00:34:24;99975.84;;;5.24;72.77
49585;BME280;35491;49.142;9.210;2023-12-28T00:35:28;99976.50;;;5.28;72.93
49585;BME280;35491;49.142;9.210;2023-12-28T00:36:29;99976.59;;;5.26;72.86
49585;BME280;35491;49.142;9.210;2023-12-28T00:37:33;99984.66;;;5.25;72.75
49585;BME280;35491;49.142;9.210;2023-12-28T00:38:38;99977.66;;;5.24;72.85
49585;BME280;35491;49.142;9.210;2023-12-28T00:39:41;99984.03;;;5.21;72.91
49585;BME280;35491;49.142;9.210;2023-12-28T00:40:42;99979.34;;;5.25;72.98
49585;BME280;35491;49.142;9.210;2023-12-28T00:41:45;99984.03;;;5.21;72.90
49585;BME280;35491;49.142;9.210;2023-12-28T00:42:46;99985.47;;;5.25;72.86
49585;BME280;35491;49.142;9.210;2023-12-28T00:43:46;99986.44;;;5.24;72.91
49585;BME280;35491;49.142;9.210;2023-12-28T00:44:50;99988.38;;;5.22;73.10
49585;BME280;35491;49.142;9.210;2023-12-28T00:45:51;99988.94;;;5.14;72.89
49585;BME280;35491;49.142;9.210;2023-12-28T00:46:55;99983.47;;;5.05;73.08
49585;BME280;35491;49.142;9.210;2023-12-28T00:47:56;99984.50;;;5.02;73.29
49585;BME280;35491;49.142;9.210;2023-12-28T00:48:59;99993.84;;;4.95;73.50
49585;BME280;35491;49.142;9.210;2023-12-28T00:50:01;99985.78;;;4.96;73.56
49585;BME280;35491;49.142;9.210;2023-12-28T00:51:17;99989.44;;;4.95;73.34
49585;BME280;35491;49.142;9.210;2023-12-28T00:52:20;99986.44;;;5.00;73.31
49585;BME280;35491;49.142;9.210;2023-12-28T00:53:21;99988.16;;;4.88;73.61
49585;BME280;35491;49.142;9.210;2023-12-28T00:54:28;99980.09;;;4.90;73.61
49585;BME280;35491;49.142;9.210;2023-12-28T00:55:29;99982.75;;;4.90;73.53
49585;BME280;35491;49.142;9.210;2023-12-28T00:56:32;99983.13;;;4.96;73.12
49585;BME280;35491;49.142;9.210;2023-12-28T00:57:33;99981.16;;;5.00;73.01
49585;BME280;35491;49.142;9.210;2023-12-28T00:58:38;99976.88;;;4.97;73.09
49585;BME280;35491;49.142;9.210;2023-12-28T00:59:40;99982.59;;;5.04;73.10
49585;BME280;35491;49.142;9.210;2023-12-28T01:00:44;99991.16;;;5.08;72.95
49585;BME280;35491;49.142;9.210;2023-12-28T01:01:45;99984.16;;;5.07;72.85
49585;BME280;35491;49.142;9.210;2023-12-28T01:02:48;99991.75;;;5.00;73.07
49585;BME280;35491;49.142;9.210;2023-12-28T01:03:50;99979.50;;;5.10;72.67
49585;BME280;35491;49.142;9.210;2023-12-28T01:04:53;99987.44;;;5.10;72.42
49585;BME280;35491;49.142;9.210;2023-12-28T01:05:54;99988.94;;;5.14;72.32
49585;BME280;35491;49.142;9.210;2023-12-28T01:06:55;99987.69;;;5.07;72.68
49585;BME280;35491;49.142;9.210;2023-12-28T01:08:02;99992.44;;;5.02;72.70
49585;BME280;35491;49.142;9.210;2023-12-28T01:09:05;99994.38;;;5.00;72.79
49585;BME280;35491;49.142;9.210;2023-12-28T01:10:14;100001.34;;;5.01;73.00
49585;BME280;35491;49.142;9.210;2023-12-28T01:11:15;99995.09;;;5.02;72.56
49585;BME280;35491;49.142;9.210;2023-12-28T01:12:18;100012.53;;;4.93;72.62
49585;BME280;35491;49.142;9.210;2023-12-28T01:13:19;99998.94;;;4.98;72.53
49585;BME280;35491;49.142;9.210;2023-12-28T01:14:22;99993.03;;;4.94;72.73
49585;BME280;35491;49.142;9.210;2023-12-28T01:15:23;99998.75;;;4.88;72.83
49585;BME280;35491;49.142;9.210;2023-12-28T01:16:27;100007.13;;;4.82;73.14
49585;BME280;35491;49.142;9.210;2023-12-28T01:17:29;99998.13;;;4.84;72.90
49585;BME280;35491;49.142;9.210;2023-12-28T01:18:35;100001.97;;;4.80;73.15
49585;BME280;35491;49.142;9.210;2023-12-28T01:19:35;100005.75;;;4.89;72.74
49585;BME280;35491;49.142;9.210;2023-12-28T01:20:39;99995.75;;;4.93;72.81
49585;BME280;35491;49.142;9.210;2023-12-28T01:21:40;100000.72;;;4.97;72.67
49585;BME280;35491;49.142;9.210;2023-12-28T01:22:40;100005.19;;;4.97;72.60
49585;BME280;35491;49.142;9.210;2023-12-28T01:23:44;100001.19;;;4.91;72.46
49585;BME280;35491;49.142;9.210;2023-12-28T01:24:46;99996.22;;;4.87;72.70
49585;BME280;35491;49.142;9.210;2023-12-28T01:25:52;99994.06;;;4.92;72.67
49585;BME280;35491;49.142;9.210;2023-12-28T01:26:55;100006.50;;;4.78;73.11
49585;BME280;35491;49.142;9.210;2023-12-28T01:27:57;100000.91;;;4.70;73.19
49585;BME280;35491;49.142;9.210;2023-12-28T01:29:01;100003.66;;;4.81;73.11
49585;BME280;35491;49.142;9.210;2023-12-28T01:30:03;99998.97;;;4.85;72.93
49585;BME280;35491;49.142;9.210;2023-12-28T01:31:07;99996.97;;;4.89;72.92
49585;BME280;35491;49.142;9.210;2023-12-28T01:32:18;100002.75;;;4.94;72.64
49585;BME280;35491;49.142;9.210;2023-12-28T01:33:28;99986.66;;;4.97;72.56
49585;BME280;35491;49.142;9.210;2023-12-28T01:34:29;99999.03;;;4.96;72.75
49585;BME280;35491;49.142;9.210;2023-12-28T01:35:42;100002.09;;;5.03;72.77
49585;BME280;35491;49.142;9.210;2023-12-28T01:36:43;100009.09;;;5.04;72.50
49585;BME280;35491;49.142;9.210;2023-12-28T01:37:46;100010.06;;;5.03;72.48
49585;BME280;35491;49.142;9.210;2023-12-28T01:38:47;100020.03;;;4.99;72.81
49585;BME280;35491;49.142;9.210;2023-12-28T01:39:48;100015.13;;;5.06;72.41
49585;BME280;35491;49.142;9.210;2023-12-28T01:40:56;100019.59;;;4.93;72.91
49585;BME280;35491;49.142;9.210;2023-12-28T01:41:57;100017.81;;;4.93;72.63
49585;BME280;35491;49.142;9.210;2023-12-28T01:43:04;100017.84;;;4.80;73.12
49585;BME280;35491;49.142;9.210;2023-12-28T01:44:05;100021.88;;;4.73;73.10
49585;BME280;35491;49.142;9.210;2023-12-28T01:45:08;100014.97;;;4.71;73.01
49585;BME280;35491;49.142;9.210;2023-12-28T01:46:13;100011.50;;;4.70;73.20
49585;BME280;35491;49.142;9.210;2023-12-28T01:47:18;100018.91;;;4.65;73.28
49585;BME280;35491;49.142;9.210;2023-12-28T01:48:19;100027.41;;;4.70;73.25
49585;BME280;35491;49.142;9.210;2023-12-28T01:49:23;100025.25;;;4.75;73.20
49585;BME280;35491;49.142;9.210;2023-12-28T01:51:50;100026.53;;;4.69;73.02
49585;BME280;35491;49.142;9.210;2023-12-28T01:52:50;100017.75;;;4.56;73.25
49585;BME280;35491;49.142;9.210;2023-12-28T01:53:54;100020.28;;;4.58;73.12
49585;BME280;35491;49.142;9.210;2023-12-28T01:54:55;100018.47;;;4.58;73.07
49585;BME280;35491;49.142;9.210;2023-12-28T01:56:02;100009.38;;;4.62;73.18
49585;BME280;35491;49.142;9.210;2023-12-28T01:57:04;100022.31;;;4.67;72.92
49585;BME280;35491;49.142;9.210;2023-12-28T01:58:07;100019.16;;;4.62;72.97
49585;BME280;35491;49.142;9.210;2023-12-28T01:59:08;100019.78;;;4.65;73.16
49585;BME280;35491;49.142;9.210;2023-12-28T02:00:12;100032.78;;;4.68;72.86
49585;BME280;35491;49.142;9.210;2023-12-28T02:01:12;100024.13;;;4.66;72.84
49585;BME280;35491;49.142;9.210;2023-12-28T02:02:16;100027.16;;;4.60;72.92
49585;BME280;35491;49.142;9.210;2023-12-28T02:03:17;100034.16;;;4.61;72.98
49585;BME280;35491;49.142;9.210;2023-12-28T02:04:20;100037.13;;;4.57;73.27
49585;BME280;35491;49.142;9.210;2023-12-28T02:05:27;100035.03;;;4.62;72.75
49585;BME280;35491;49.142;9.210;2023-12-28T02:06:31;100030.38;;;4.65;72.93
49585;BME280;35491;49.142;9.210;2023-12-28T02:07:32;100030.03;;;4.70;72.62
49585;BME280;35491;49.142;9.210;2023-12-28T02:08:35;100033.00;;;4.65;72.98
49585;BME280;35491;49.142;9.210;2023-12-28T02:09:36;100038.00;;;4.70;72.67
49585;BME280;35491;49.142;9.210;2023-12-28T02:10:39;100034.06;;;4.76;72.59
49585;BME280;35491;49.142;9.210;2023-12-28T02:11:43;100031.41;;;4.76;72.53
49585;BME280;35491;49.142;9.210;2023-12-28T02:12:58;100030.78;;;4.72;72.48
49585;BME280;35491;49.142;9.210;2023-12-28T02:13:59;100025.69;;;4.69;72.53
49585;BME280;35491;49.142;9.210;2023-12-28T02:15:00;100032.06;;;4.66;72.40
49585;BME280;35491;49.142;9.210;2023-12-28T02:16:06;100034.38;;;4.71;72.39
49585;BME280;35491;49.142;9.210;2023-12-28T02:17:13;100039.69;;;4.71;72.45
49585;BME280;35491;49.142;9.210;2023-12-28T02:18:19;100032.78;;;4.68;72.16
49585;BME280;35491;49.142;9.210;2023-12-28T02:19:24;100029.09;;;4.71;72.33
49585;BME280;35491;49.142;9.210;2023-12-28T02:20:31;100029.81;;;4.73;72.16
49585;BME280;35491;49.142;9.210;2023-12-28T02:21:32;100027.59;;;4.67;72.36
49585;BME280;35491;49.142;9.210;2023-12-28T02:22:36;100032.03;;;4.53;72.49
49585;BME280;35491;49.142;9.210;2023-12-28T02:23:37;100032.69;;;4.57;72.50
49585;BME280;35491;49.142;9.210;2023-12-28T02:26:03;100027.72;;;4.52;72.53
49585;BME280;35491;49.142;9.210;2023-12-28T02:27:07;100032.59;;;4.46;72.79
49585;BME280;35491;49.142;9.210;2023-12-28T02:28:07;100028.03;;;4.48;72.51
49585;BME280;35491;49.142;9.210;2023-12-28T02:29:08;100046.66;;;4.46;72.79
49585;BME280;35491;49.142;9.210;2023-12-28T02:30:12;100024.97;;;4.54;72.76
49585;BME280;35491;49.142;9.210;2023-12-28T02:31:16;100026.97;;;4.50;72.47
49585;BME280;35491;49.142;9.210;2023-12-28T02:32:24;100033.44;;;4.46;72.69
49585;BME280;35491;49.142;9.210;2023-12-28T02:33:30;100028.13;;;4.46;72.69
49585;BME280;35491;49.142;9.210;2023-12-28T02:34:37;100029.50;;;4.39;73.19
49585;BME280;35491;49.142;9.210;2023-12-28T02:35:41;100033.09;;;4.38;73.28
49585;BME280;35491;49.142;9.210;2023-12-28T02:36:43;100022.94;;;4.45;72.86
49585;BME280;35491;49.142;9.210;2023-12-28T02:37:48;100035.97;;;4.35;73.06
49585;BME280;35491;49.142;9.210;2023-12-28T02:38:52;100011.19;;;4.36;73.28
49585;BME280;35491;49.142;9.210;2023-12-28T02:39:53;100025.81;;;4.29;73.17
49585;BME280;35491;49.142;9.210;2023-12-28T02:40:56;100030.91;;;4.32;73.52
49585;BME280;35491;49.142;9.210;2023-12-28T02:42:00;100027.63;;;4.41;73.02
49585;BME280;35491;49.142;9.210;2023-12-28T02:43:03;100025.72;;;4.43;73.15
49585;BME280;35491;49.142;9.210;2023-12-28T02:44:04;100013.75;;;4.37;73.34
49585;BME280;35491;49.142;9.210;2023-12-28T02:45:08;100012.81;;;4.39;73.31
49585;BME280;35491;49.142;9.210;2023-12-28T02:46:09;100011.50;;;4.44;72.84
49585;BME280;35491;49.142;9.210;2023-12-28T02:47:14;100006.88;;;4.48;72.97
49585;BME280;35491;49.142;9.210;2023-12-28T02:48:15;100017.03;;;4.54;72.87
49585;BME280;35491;49.142;9.210;2023-12-28T02:49:18;100018.09;;;4.51;72.91
49585;BME280;35491;49.142;9.210;2023-12-28T02:50:18;100011.84;;;4.52;72.76
49585;BME280;35491;49.142;9.210;2023-12-28T02:51:19;100021.13;;;4.45;72.66
49585;BME280;35491;49.142;9.210;2023-12-28T02:52:22;100030.38;;;4.52;72.61
49585;BME280;35491;49.142;9.210;2023-12-28T02:53:23;100020.19;;;4.46;72.73
49585;BME280;35491;49.142;9.210;2023-12-28T02:54:26;100027.38;;;4.44;72.59
49585;BME280;35491;49.142;9.210;2023-12-28T02:55:27;100032.16;;;4.39;72.46
49585;BME280;35491;49.142;9.210;2023-12-28T02:56:31;100038.19;;;4.28;73.29
49585;BME280;35491;49.142;9.210;2023-12-28T02:57:35;100033.75;;;4.29;72.95
49585;BME280;35491;49.142;9.210;2023-12-28T02:58:40;100022.53;;;4.25;73.23
49585;BME280;35491;49.142;9.210;2023-12-28T02:59:40;100035.94;;;4.22;73.33
49585;BME280;35491;49.142;9.210;2023-12-28T03:00:41;100037.66;;;4.23;73.34
49585;BME280;35491;49.142;9.210;2023-12-28T03:01:45;100032.16;;;4.26;73.35
49585;BME280;35491;49.142;9.210;2023-12-28T03:02:46;100037.00;;;4.19;73.30
49585;BME280;35491;49.142;9.210;2023-12-28T03:03:49;100041.97;;;4.11;73.60
49585;BME280;35491;49.142;9.210;2023-12-28T03:04:50;100038.19;;;4.15;73.50
49585;BME280;35491;49.142;9.210;2023-12-28T03:05:51;100042.72;;;4.13;73.60
49585;BME280;35491;49.142;9.210;2023-12-28T03:06:54;100047.16;;;4.13;73.66
49585;BME280;35491;49.142;9.210;2023-12-28T03:07:55;100043.56;;;4.14;73.81
49585;BME280;35491;49.142;9.210;2023-12-28T03:08:59;100034.38;;;4.19;73.75
49585;BME280;35491;49.142;9.210;2023-12-28T03:10:00;100033.91;;;4.00;74.05
49585;BME280;35491;49.142;9.210;2023-12-28T03:11:00;100034.94;;;3.84;74.40
49585;BME280;35491;49.142;9.210;2023-12-28T03:12:04;100045.53;;;3.84;74.79
49585;BME280;35491;49.142;9.210;2023-12-28T03:13:07;100038.34;;;3.86;74.61
49585;BME280;35491;49.142;9.210;2023-12-28T03:14:11;100038.97;;;3.90;74.67
49585;BME280;35491;49.142;9.210;2023-12-28T03:15:12;100032.63;;;3.93;74.62
49585;BME280;35491;49.142;9.210;2023-12-28T03:16:16;100039.81;;;3.90;74.82
49585;BME280;35491;49.142;9.210;2023-12-28T03:17:17;100034.50;;;3.78;74.88
49585;BME280;35491;49.142;9.210;2023-12-28T03:18:18;100034.19;;;3.82;75.02
49585;BME280;35491;49.142;9.210;2023-12-28T03:19:21;100040.00;;;3.87;74.83
49585;BME280;35491;49.142;9.210;2023-12-28T03:20:21;100041.72;;;3.88;74.94
49585;BME280;35491;49.142;9.210;2023-12-28T03:21:25;100036.03;;;3.95;74.52
49585;BME280;35491;49.142;9.210;2023-12-28T03:22:25;100047.59;;;3.79;74.86
49585;BME280;35491;49.142;9.210;2023-12-28T03:23:26;100037.91;;;3.93;74.76
49585;BME280;35491;49.142;9.210;2023-12-28T03:24:29;100042.59;;;4.02;74.76
49585;BME280;35491;49.142;9.210;2023-12-28T03:25:30;100050.97;;;4.09;74.47
49585;BME280;35491;49.142;9.210;2023-12-28T03:26:37;100042.81;;;4.12;74.45
49585;BME280;35491;49.142;9.210;2023-12-28T03:27:38;100052.69;;;4.10;74.51
49585;BME280;35491;49.142;9.210;2023-12-28T03:28:44;100047.78;;;4.16;74.35
49585;BME280;35491;49.142;9.210;2023-12-28T03:29:45;100044.50;;;4.13;74.36
49585;BME280;35491;49.142;9.210;2023-12-28T03:30:48;100043.53;;;4.01;74.59
49585;BME280;35491;49.142;9.210;2023-12-28T03:31:48;100048.09;;;3.99;74.85
49585;BME280;35491;49.142;9.210;2023-12-28T03:32:49;100046.75;;;4.06;74.47
49585;BME280;35491;49.142;9.210;2023-12-28T03:33:53;100036.97;;;3.94;74.86
49585;BME280;35491;49.142;9.210;2023-12-28T03:34:53;100041.50;;;3.92;74.84
49585;BME280;35491;49.142;9.210;2023-12-28T03:35:57;100041.75;;;4.01;74.69
49585;BME280;35491;49.142;9.210;2023-12-28T03:36:58;100039.22;;;4.13;74.63
49585;BME280;35491;49.142;9.210;2023-12-28T03:38:02;100031.38;;;3.98;74.78
49585;BME280;35491;49.142;9.210;2023-12-28T03:39:02;100029.06;;;4.06;74.61
49585;BME280;35491;49.142;9.210;2023-12-28T03:40:07;100035.19;;;4.07;74.60
49585;BME280;35491;49.142;9.210;2023-12-28T03:41:15;100039.00;;;4.03;74.80
49585;BME280;35491;49.142;9.210;2023-12-28T03:42:18;100031.19;;;4.14;74.54
49585;BME280;35491;49.142;9.210;2023-12-28T03:43:19;100025.28;;;4.24;74.19
49585;BME280;35491;49.142;9.210;2023-12-28T03:44:25;100031.41;;;4.24;74.35
49585;BME280;35491;49.142;9.210;2023-12-28T03:45:26;100023.97;;;4.16;74.81
49585;BME280;35491;49.142;9.210;2023-12-28T03:46:29;100023.16;;;4.29;74.33
49585;BME280;35491;49.142;9.210;2023-12-28T03:47:30;100020.81;;;4.37;74.29
49585;BME280;35491;49.142;9.210;2023-12-28T03:48:35;100014.06;;;4.46;74.05
49585;BME280;35491;49.142;9.210;2023-12-28T03:49:36;100013.19;;;4.45;74.05
49585;BME280;35491;49.142;9.210;2023-12-28T03:50:39;100009.59;;;4.46;73.77
49585;BME280;35491;49.142;9.210;2023-12-28T03:51:39;100009.50;;;4.48;73.87
49585;BME280;35491;49.142;9.210;2023-12-28T03:52:43;100008.75;;;4.59;73.68
49585;BME280;35491;49.142;9.210;2023-12-28T03:53:43;100008.56;;;4.62;73.31
49585;BME280;35491;49.142;9.210;2023-12-28T03:54:44;100008.53;;;4.49;73.73
49585;BME280;35491;49.142;9.210;2023-12-28T03:55:47;100008.97;;;4.56;73.56
49585;BME280;35491;49.142;9.210;2023-12-28T03:56:48;100001.56;;;4.61;73.15
49585;BME280;35491;49.142;9.210;2023-12-28T03:57:51;100007.06;;;4.58;73.13
49585;BME280;35491;49.142;9.210;2023-12-28T03:58:52;100007.25;;;4.55;73.10
49585;BME280;35491;49.142;9.210;2023-12-28T03:59:56;99994.34;;;4.63;73.02
49585;BME280;35491;49.142;9.210;2023-12-28T04:00:59;99997.63;;;4.66;72.98
49585;BME280;35491;49.142;9.210;2023-12-28T04:02:00;99994.25;;;4.64;73.13
49585;BME280;35491;49.142;9.210;2023-12-28T04:03:03;100001.56;;;4.61;73.07
49585;BME280;35491;49.142;9.210;2023-12-28T04:04:04;100004.22;;;4.61;72.85
49585;BME280;35491;49.142;9.210;2023-12-28T04:05:09;100009.19;;;4.65;73.04
49585;BME280;35491;49.142;9.210;2023-12-28T04:06:10;100009.59;;;4.72;72.97
49585;BME280;35491;49.142;9.210;2023-12-28T04:07:13;100006.22;;;4.70;73.24
49585;BME280;35491;49.142;9.210;2023-12-28T04:08:14;100000.47;;;4.76;72.92
49585;BME280;35491;49.142;9.210;2023-12-28T04:09:17;100000.75;;;4.84;72.51
49585;BME280;35491;49.142;9.210;2023-12-28T04:10:27;99999.50;;;4.90;72.51
49585;BME280;35491;49.142;9.210;2023-12-28T04:11:31;99998.31;;;4.94;72.24
49585;BME280;35491;49.142;9.210;2023-12-28T04:12:32;99995.56;;;4.96;72.15
49585;BME280;35491;49.142;9.210;2023-12-28T04:13:37;100003.00;;;4.91;72.55
49585;BME280;35491;49.142;9.210;2023-12-28T04:14:39;99996.84;;;4.90;72.25
49585;BME280;35491;49.142;9.210;2023-12-28T04:15:45;99999.03;;;4.96;72.41
49585;BME280;35491;49.142;9.210;2023-12-28T04:16:46;100011.25;;;4.99;72.10
49585;BME280;35491;49.142;9.210;2023-12-28T04:17:49;100008.59;;;4.99;72.24
49585;BME280;35491;49.142;9.210;2023-12-28T04:18:50;100004.56;;;4.93;72.15
49585;BME280;35491;49.142;9.210;2023-12-28T04:19:53;100005.97;;;4.86;72.51
49585;BME280;35491;49.142;9.210;2023-12-28T04:20:54;100001.72;;;4.83;72.70
49585;BME280;35491;49.142;9.210;2023-12-28T04:21:55;100003.41;;;4.84;72.54
49585;BME280;35491;49.142;9.210;2023-12-28T04:22:58;99999.06;;;4.83;72.63
49585;BME280;35491;49.142;9.210;2023-12-28T04:23:59;99997.47;;;4.94;72.25
49585;BME280;35491;49.142;9.210;2023-12-28T04:24:59;99998.03;;;4.86;72.40
49585;BME280;35491;49.142;9.210;2023-12-28T04:26:03;100003.09;;;4.89;72.13
49585;BME280;35491;49.142;9.210;2023-12-28T04:27:05;99990.47;;;4.93;72.21
49585;BME280;35491;49.142;9.210;2023-12-28T04:28:08;99985.16;;;4.93;72.21
49585;BME280;35491;49.142;9.210;2023-12-28T04:29:09;99988.88;;;4.90;71.84
49585;BME280;35491;49.142;9.210;2023-12-28T04:30:12;99982.44;;;4.94;72.12
49585;BME280;35491;49.142;9.210;2023-12-28T04:31:16;99989.19;;;4.98;71.87
49585;BME280;35491;49.142;9.210;2023-12-28T04:32:19;99990.59;;;4.91;71.94
49585;BME280;35491;49.142;9.210;2023-12-28T04:33:20;99987.81;;;4.93;71.75
49585;BME280;35491;49.142;9.210;2023-12-28T04:34:20;99988.56;;;4.95;71.92
49585;BME280;35491;49.142;9.210;2023-12-28T04:35:23;99986.97;;;4.92;72.14
49585;BME280;35491;49.142;9.210;2023-12-28T04:36:24;99989.31;;;4.97;71.77
49585;BME280;35491;49.142;9.210;2023-12-28T04:37:28;99986.66;;;4.97;71.68
49585;BME280;35491;49.142;9.210;2023-12-28T04:38:29;99986.56;;;4.86;72.13
49585;BME280;35491;49.142;9.210;2023-12-28T04:39:32;99992.06;;;4.82;71.87
49585;BME280;35491;49.142;9.210;2023-12-28T04:40:33;99987.75;;;4.81;72.16
49585;BME280;35491;49.142;9.210;2023-12-28T04:41:36;99990.09;;;4.86;72.18
49585;BME280;35491;49.142;9.210;2023-12-28T04:42:37;99998.13;;;4.84;72.25
49585;BME280;35491;49.142;9.210;2023-12-28T04:43:40;99991.13;;;4.83;72.46
49585;BME280;35491;49.142;9.210;2023-12-28T04:44:41;99992.00;;;4.84;72.30
49585;BME280;35491;49.142;9.210;2023-12-28T04:45:44;99997.63;;;4.79;72.48
49585;BME280;35491;49.142;9.210;2023-12-28T04:46:48;99987.75;;;4.81;72.19
49585;BME280;35491;49.142;9.210;2023-12-28T04:47:52;99993.25;;;4.78;72.38
49585;BME280;35491;49.142;9.210;2023-12-28T04:48:52;99989.88;;;4.76;72.19
49585;BME280;35491;49.142;9.210;2023-12-28T04:49:56;99996.03;;;4.64;72.98
49585;BME280;35491;49.142;9.210;2023-12-28T04:50:57;100001.31;;;4.64;72.73
49585;BME280;35491;49.142;9.210;2023-12-28T04:52:00;100006.41;;;4.67;72.76
49585;BME280;35491;49.142;9.210;2023-12-28T04:53:01;99990.94;;;4.74;72.85
49585;BME280;35491;49.142;9.210;2023-12-28T04:54:05;100005.25;;;4.71;73.15
49585;BME280;35491;49.142;9.210;2023-12-28T04:55:06;100009.59;;;4.72;73.08
49585;BME280;35491;49.142;9.210;2023-12-28T04:56:10;100015.09;;;4.69;73.05
49585;BME280;35491;49.142;9.210;2023-12-28T04:57:11;100020.19;;;4.72;72.99
49585;BME280;35491;49.142;9.210;2023-12-28T04:58:14;100019.88;;;4.77;72.67
49585;BME280;35491;49.142;9.210;2023-12-28T04:59:15;100023.47;;;4.76;72.99
49585;BME280;35491;49.142;9.210;2023-12-28T05:00:18;100033.00;;;4.78;72.88
49585;BME280;35491;49.142;9.210;2023-12-28T05:01:19;100032.78;;;4.81;72.98
49585;BME280;35491;49.142;9.210;2023-12-28T05:02:25;100034.78;;;4.78;72.73
49585;BME280;35491;49.142;9.210;2023-12-28T05:03:26;100037.56;;;4.76;73.02
49585;BME280;35491;49.142;9.210;2023-12-28T05:04:29;100036.72;;;4.63;73.55
49585;BME280;35491;49.142;9.210;2023-12-28T05:05:30;100047.50;;;4.73;73.29
49585;BME280;35491;49.142;9.210;2023-12-28T05:06:33;100050.47;;;4.81;73.14
49585;BME280;35491;49.142;9.210;2023-12-28T05:07:34;100058.09;;;4.73;73.21
49585;BME280;35491;49.142;9.210;2023-12-28T05:08:34;100055.34;;;4.74;73.38
49585;BME280;35491;49.142;9.210;2023-12-28T05:09:37;100052.38;;;4.79;73.20
49585;BME280;35491;49.142;9.210;2023-12-28T05:10:38;100058.72;;;4.76;73.11
49585;BME280;35491;49.142;9.210;2023-12-28T05:11:42;100061.50;;;4.75;73.62
49585;BME280;35491;49.142;9.210;2023-12-28T05:12:43;100060.13;;;4.56;74.02
49585;BME280;35491;49.142;9.210;2023-12-28T05:13:47;100054.53;;;4.61;73.55
49585;BME280;35491;49.142;9.210;2023-12-28T05:14:48;100057.06;;;4.62;73.72
49585;BME280;35491;49.142;9.210;2023-12-28T05:15:51;100039.47;;;4.61;73.65
49585;BME280;35491;49.142;9.210;2023-12-28T05:16:52;100049.63;;;4.55;74.39
49585;BME280;35491;49.142;9.210;2023-12-28T05:17:58;100052.06;;;4.58;73.95
49585;BME280;35491;49.142;9.210;2023-12-28T05:18:59;100047.59;;;4.58;73.90
49585;BME280;35491;49.142;9.210;2023-12-28T05:20:03;100042.03;;;4.63;73.88
49585;BME280;35491;49.142;9.210;2023-12-28T05:21:04;100041.16;;;4.62;73.98
49585;BME280;35491;49.142;9.210;2023-12-28T05:22:07;100045.38;;;4.65;73.73
49585;BME280;35491;49.142;9.210;2023-12-28T05:23:11;100046.75;;;4.71;73.78
49585;BME280;35491;49.142;9.210;2023-12-28T05:24:14;100055.13;;;4.77;73.56
49585;BME280;35491;49.142;9.210;2023-12-28T05:25:15;100066.03;;;4.86;73.38
49585;BME280;35491;49.142;9.210;2023-12-28T05:26:15;100062.13;;;4.91;73.33
49585;BME280;35491;49.142;9.210;2023-12-28T05:27:19;100074.19;;;4.95;73.38
49585;BME280;35491;49.142;9.210;2023-12-28T05:28:20;100073.56;;;5.05;73.02
49585;BME280;35491;49.142;9.210;2023-12-28T05:29:23;100066.13;;;5.10;72.53
49585;BME280;35491;49.142;9.210;2023-12-28T05:30:24;100075.13;;;5.07;72.74
49585;BME280;35491;49.142;9.210;2023-12-28T05:31:27;100079.56;;;5.07;72.84
49585;BME280;35491;49.142;9.210;2023-12-28T05:32:28;100078.00;;;5.04;72.68
49585;BME280;35491;49.142;9.210;2023-12-28T05:33:34;100086.88;;;5.16;72.71
49585;BME280;35491;49.142;9.210;2023-12-28T05:34:35;100092.72;;;5.08;72.63
49585;BME280;35491;49.142;9.210;2023-12-28T05:35:38;100088.34;;;5.20;72.72
49585;BME280;35491;49.142;9.210;2023-12-28T05:36:39;100084.31;;;5.27;72.64
49585;BME280;35491;49.142;9.210;2023-12-28T05:37:45;100077.09;;;5.29;72.47